Time;durP1;ratioP1;P1;durP2;ratioP2;P2;SDS_P1;SDS_P2;PMS_P1;PMS_P2;Temp;Humidity;BMP_temperature;BMP_pressure;BME280_temperature;BME280_humidity;BME280_pressure;Samples;Min_cycle;Max_cycle;Signal;HPM_P1;HPM_P2
2022/11/28 00:01:23;;;;;;;32.83;15.20;;;;;;;2.40;67.48;101425.94;6151415;23;20018;-72
2022/11/28 00:03:50;;;;;;;31.08;14.88;;;;;;;2.36;68.08;101427.06;6150044;23;20045;-72
2022/11/28 00:06:17;;;;;;;30.60;14.95;;;;;;;2.65;67.09;101420.06;6151625;23;20028;-72
2022/11/28 00:08:44;;;;;;;27.35;14.43;;;;;;;2.69;66.63;101418.06;6152030;23;20064;-73
2022/11/28 00:11:12;;;;;;;31.40;15.45;;;;;;;2.48;67.21;101419.34;6152717;23;20024;-72
2022/11/28 00:13:40;;;;;;;32.80;14.73;;;;;;;2.37;67.41;101414.66;6151776;23;20022;-72
2022/11/28 00:16:08;;;;;;;31.30;15.30;;;;;;;2.56;66.79;101415.31;6151132;23;20018;-73
2022/11/28 00:18:35;;;;;;;36.03;16.33;;;;;;;2.63;66.67;101413.97;6150968;23;20039;-73
2022/11/28 00:21:08;;;;;;;30.58;15.35;;;;;;;2.23;67.72;101404.03;6150618;23;20025;-72
2022/11/28 00:23:35;;;;;;;34.92;14.93;;;;;;;2.49;67.09;101400.72;6150273;23;20021;-73
2022/11/28 00:26:06;;;;;;;29.10;14.65;;;;;;;2.38;67.82;101401.34;6151202;23;20030;-72
2022/11/28 00:28:33;;;;;;;30.60;15.60;;;;;;;2.40;67.37;101390.66;6151298;23;20021;-73
2022/11/28 00:30:59;;;;;;;32.22;15.43;;;;;;;2.59;67.09;101395.72;6150470;23;20025;-73
2022/11/28 00:33:26;;;;;;;35.15;15.65;;;;;;;2.34;67.86;101391.91;6151415;23;20018;-72
2022/11/28 00:36:01;;;;;;;33.30;15.77;;;;;;;2.34;67.68;101391.00;6151516;23;20347;-73
2022/11/28 00:38:28;;;;;;;32.00;16.13;;;;;;;2.84;66.43;101390.63;6151871;23;20096;-72
2022/11/28 00:41:05;;;;;;;32.30;16.20;;;;;;;2.54;67.21;101393.34;6144573;23;20026;-73
2022/11/28 00:43:33;;;;;;;37.83;16.00;;;;;;;2.49;67.18;101394.56;6151841;23;20024;-73
2022/11/28 00:45:59;;;;;;;29.90;15.15;;;;;;;2.58;66.69;101389.59;6151525;23;20485;-74
2022/11/28 00:48:26;;;;;;;29.13;15.60;;;;;;;2.39;67.16;101386.31;6151794;23;20024;-73
2022/11/28 00:50:53;;;;;;;34.60;15.90;;;;;;;2.35;67.35;101396.25;6152638;23;20104;-73
2022/11/28 00:53:20;;;;;;;31.80;14.98;;;;;;;2.42;67.39;101389.63;6152720;23;20350;-73
2022/11/28 00:55:47;;;;;;;35.33;16.25;;;;;;;2.39;67.49;101387.16;6152290;23;20358;-73
2022/11/28 00:58:13;;;;;;;30.67;15.30;;;;;;;2.36;67.45;101387.34;6153091;23;20024;-73
2022/11/28 01:00:39;;;;;;;30.15;15.43;;;;;;;2.32;67.79;101384.97;6153268;23;20021;-73
2022/11/28 01:03:06;;;;;;;31.05;15.27;;;;;;;2.36;67.75;101379.41;6153090;23;20034;-73
2022/11/28 01:05:39;;;;;;;29.85;13.90;;;;;;;2.15;67.58;101365.63;6153134;23;20101;-73
2022/11/28 01:08:05;;;;;;;33.63;15.63;;;;;;;2.10;68.67;101375.66;6153465;23;20025;-73
2022/11/28 01:10:32;;;;;;;35.47;16.25;;;;;;;2.31;67.65;101365.59;6152387;23;20017;-73
2022/11/28 01:12:58;;;;;;;34.58;16.77;;;;;;;2.20;68.20;101362.75;6153009;23;20022;-73
2022/11/28 01:15:25;;;;;;;36.75;17.10;;;;;;;2.18;68.51;101362.81;6152645;23;20369;-73
2022/11/28 01:17:51;;;;;;;35.10;17.55;;;;;;;2.05;68.47;101355.69;6153042;23;20021;-73
2022/11/28 01:20:18;;;;;;;36.50;17.45;;;;;;;2.28;68.05;101351.69;6150608;23;20025;-73
2022/11/28 01:22:44;;;;;;;30.63;15.98;;;;;;;2.15;68.44;101349.75;6153005;23;20029;-73
2022/11/28 01:25:11;;;;;;;43.17;18.73;;;;;;;2.19;67.55;101343.31;6123800;23;20444;-73
2022/11/28 01:27:37;;;;;;;33.00;17.23;;;;;;;2.03;68.27;101347.84;6123178;23;20022;-72
2022/11/28 01:30:04;;;;;;;33.17;18.15;;;;;;;2.26;67.20;101346.47;6121353;23;20033;-73
2022/11/28 01:32:31;;;;;;;33.78;18.10;;;;;;;2.22;67.77;101344.09;6122536;23;20021;-72
2022/11/28 01:34:57;;;;;;;35.80;18.33;;;;;;;2.18;67.93;101336.34;6123128;23;20030;-73
2022/11/28 01:37:24;;;;;;;36.10;17.75;;;;;;;2.25;67.74;101334.19;6122871;23;20022;-73
2022/11/28 01:39:50;;;;;;;38.05;18.42;;;;;;;2.20;68.09;101328.31;6122236;23;20354;-73
2022/11/28 01:42:18;;;;;;;36.10;19.30;;;;;;;2.07;68.23;101330.00;6123377;23;20021;-73
2022/11/28 01:44:48;;;;;;;33.72;17.15;;;;;;;2.11;67.88;101331.50;6124291;23;20026;-73
2022/11/28 01:47:19;;;;;;;38.63;18.85;;;;;;;2.26;67.91;101330.59;6122046;23;20018;-73
2022/11/28 01:49:47;;;;;;;;;;;;;;;2.16;68.41;101318.84;6153345;23;20056;-73
2022/11/28 01:52:16;;;;;;;33.13;18.52;;;;;;;2.19;67.76;101319.50;6151661;23;19923;-73
2022/11/28 01:54:47;;;;;;;31.30;18.55;;;;;;;2.13;67.66;101321.66;6151398;23;20025;-73
2022/11/28 01:57:15;;;;;;;;;;;;;;;2.02;68.09;101324.94;6152036;23;20081;-73
2022/11/28 01:59:50;;;;;;;34.47;18.05;;;;;;;1.87;68.62;101320.53;6152439;23;19927;-73
2022/11/28 02:02:28;;;;;;;35.15;18.33;;;;;;;1.96;68.39;101312.09;6122608;23;20076;-73
2022/11/28 02:04:55;;;;;;;32.20;19.02;;;;;;;1.87;68.79;101313.44;6148071;23;20100;-72
2022/11/28 02:07:22;;;;;;;34.40;19.63;;;;;;;2.06;68.04;101300.03;6151470;23;20028;-72
2022/11/28 02:09:48;;;;;;;30.10;18.33;;;;;;;2.14;68.04;101299.56;6152571;23;20406;-72
2022/11/28 02:12:58;;;;;;;33.78;18.77;;;;;;;2.04;67.62;101293.13;6152563;23;20468;-73
2022/11/28 02:16:04;;;;;;;39.25;18.60;;;;;;;2.21;67.53;101300.91;6150846;23;20025;-72
2022/11/28 02:19:07;;;;;;;35.20;17.90;;;;;;;2.02;68.21;101287.03;6116686;23;20029;-73
2022/11/28 02:22:01;;;;;;;34.35;19.13;;;;;;;2.26;67.34;101290.03;6118532;23;20343;-73
2022/11/28 02:24:39;;;;;;;34.42;17.65;;;;;;;2.20;66.83;101283.31;6151778;23;20017;-72
2022/11/28 02:27:24;;;;;;;35.58;18.60;;;;;;;2.13;67.10;101280.19;6152887;23;20048;-72
2022/11/28 02:30:13;;;;;;;28.48;16.75;;;;;;;1.94;67.63;101288.34;6152185;23;20057;-72
2022/11/28 02:32:51;;;;;;;33.08;17.73;;;;;;;1.91;67.95;101288.50;6148469;23;20032;-73
2022/11/28 02:35:53;;;;;;;37.03;17.35;;;;;;;1.91;67.94;101280.56;6152650;23;20028;-73
2022/11/28 02:38:46;;;;;;;34.22;17.35;;;;;;;1.83;67.92;101274.88;6126036;23;20105;-73
2022/11/28 02:41:27;;;;;;;31.05;16.83;;;;;;;1.93;67.44;101276.06;6147184;23;20092;-72
2022/11/28 02:44:00;;;;;;;30.75;16.63;;;;;;;1.89;68.08;101273.69;6137577;23;20025;-72
2022/11/28 02:46:51;;;;;;;28.33;15.68;;;;;;;1.94;67.45;101276.91;6133030;23;20053;-71
2022/11/28 02:49:53;;;;;;;32.28;16.67;;;;;;;2.02;66.97;101272.00;6149914;23;20024;-72
2022/11/28 02:52:30;;;;;;;34.17;16.52;;;;;;;2.05;67.19;101268.34;6121466;23;20352;-72
2022/11/28 02:54:58;;;;;;;32.28;17.30;;;;;;;2.08;67.01;101268.16;6151303;23;20023;-72
2022/11/28 02:57:36;;;;;;;33.42;17.23;;;;;;;1.90;67.52;101262.16;6151658;23;20041;-72
2022/11/28 03:00:31;;;;;;;38.33;17.30;;;;;;;2.05;67.49;101263.03;6147600;23;20031;-72
2022/11/28 03:03:00;;;;;;;29.10;16.35;;;;;;;1.98;67.45;101259.91;6144166;23;20025;-72
2022/11/28 03:05:54;;;;;;;28.33;16.05;;;;;;;1.93;67.86;101249.63;6132231;23;20029;-72
2022/11/28 03:08:26;;;;;;;35.10;16.70;;;;;;;2.00;67.22;101257.19;6152072;23;20029;-72
2022/11/28 03:11:17;;;;;;;28.20;16.10;;;;;;;1.72;67.73;101245.56;6150248;23;20025;-72
2022/11/28 03:14:04;;;;;;;30.50;16.02;;;;;;;1.92;67.45;101247.00;6152036;23;20362;-72
2022/11/28 03:16:47;;;;;;;27.88;15.15;;;;;;;1.85;67.36;101235.94;6151797;23;20346;-71
2022/11/28 03:19:31;;;;;;;30.83;16.25;;;;;;;1.95;66.72;101239.78;6152293;23;20022;-73
2022/11/28 03:22:27;;;;;;;29.95;15.88;;;;;;;1.87;67.18;101234.06;6151167;23;20031;-72
2022/11/28 03:25:02;;;;;;;29.20;15.13;;;;;;;1.83;67.20;101237.84;6151643;23;20025;-72
2022/11/28 03:27:41;;;;;;;30.52;16.30;;;;;;;1.96;67.59;101232.72;6145993;23;20017;-72
2022/11/28 03:30:15;;;;;;;28.42;16.27;;;;;;;1.90;67.08;101236.53;6151515;23;20014;-72
2022/11/28 03:32:44;;;;;;;34.65;15.57;;;;;;;1.85;67.02;101243.03;6150485;23;20026;-73
2022/11/28 03:35:15;;;;;;;28.77;15.13;;;;;;;2.01;67.28;101230.63;6150802;23;20385;-73
2022/11/28 03:37:53;;;;;;;28.13;16.30;;;;;;;1.86;67.49;101229.72;6151523;23;20026;-73
2022/11/28 03:40:32;;;;;;;30.50;16.00;;;;;;;1.94;67.25;101224.00;6151179;23;20018;-73
2022/11/28 03:43:08;;;;;;;31.40;16.30;;;;;;;1.77;67.66;101226.78;6151542;23;20017;-73
2022/11/28 03:45:39;;;;;;;27.52;16.52;;;;;;;1.83;67.10;101218.47;6121712;23;20049;-72
2022/11/28 03:48:14;;;;;;;24.83;11.68;;;;;;;1.76;67.28;101217.97;6121850;23;20026;-73
2022/11/28 03:50:45;;;;;;;30.67;16.20;;;;;;;1.86;67.26;101232.38;6121376;23;20018;-73
2022/11/28 03:53:19;;;;;;;36.67;16.98;;;;;;;1.83;67.39;101231.69;6121344;23;20018;-73
2022/11/28 03:56:06;;;;;;;33.53;16.58;;;;;;;1.86;67.28;101218.28;6121950;23;20029;-73
2022/11/28 03:58:38;;;;;;;33.85;17.63;;;;;;;1.85;67.46;101220.06;6122480;23;20029;-73
2022/11/28 04:01:22;;;;;;;34.78;17.13;;;;;;;1.79;67.48;101220.44;6151481;23;20031;-72
2022/11/28 04:03:54;;;;;;;31.95;16.42;;;;;;;1.74;67.39;101217.22;6151049;23;20033;-73
2022/11/28 04:06:32;;;;;;;38.50;18.63;;;;;;;1.72;67.93;101211.19;6151207;23;20026;-73
2022/11/28 04:09:09;;;;;;;34.80;17.50;;;;;;;1.83;67.88;101205.25;6149884;23;20022;-73
2022/11/28 04:11:55;;;;;;;23.85;12.75;;;;;;;1.67;67.79;101206.13;6121181;23;20391;-73
2022/11/28 04:14:33;;;;;;;32.28;16.80;;;;;;;1.66;67.96;101207.09;6121207;23;20045;-73
2022/11/28 04:17:13;;;;;;;34.38;16.13;;;;;;;1.75;67.90;101202.19;6121252;23;20021;-73
2022/11/28 04:19:48;;;;;;;33.53;16.50;;;;;;;1.82;67.41;101204.41;6152244;23;20021;-73
2022/11/28 04:22:29;;;;;;;34.50;17.67;;;;;;;1.67;68.15;101206.13;6117632;23;20041;-73
2022/11/28 04:25:11;;;;;;;36.03;17.02;;;;;;;1.72;67.74;101203.25;6152093;23;20388;-73
2022/11/28 04:27:40;;;;;;;;;;;;;;;1.77;67.32;101203.81;6123392;23;20022;-73
2022/11/28 04:30:08;;;;;;;33.30;17.05;;;;;;;1.63;67.90;101201.97;6124250;23;19917;-73
2022/11/28 04:32:39;;;;;;;34.83;18.88;;;;;;;1.75;68.08;101195.13;6124710;23;20017;-73
2022/11/28 04:35:11;;;;;;;31.20;16.05;;;;;;;1.67;68.23;101194.72;6153270;23;20021;-73
2022/11/28 04:37:40;;;;;;;36.20;18.30;;;;;;;1.77;67.83;101187.09;6152163;23;20022;-72
2022/11/28 04:40:11;;;;;;;37.03;18.17;;;;;;;1.53;68.59;101181.47;6152858;23;20024;-72
2022/11/28 04:42:50;;;;;;;37.08;17.48;;;;;;;1.66;68.26;101179.81;6153075;23;20347;-73
2022/11/28 04:45:25;;;;;;;36.83;18.67;;;;;;;1.72;68.09;101176.78;6153284;23;20021;-73
2022/11/28 04:47:52;;;;;;;34.97;18.77;;;;;;;1.71;68.58;101177.72;6152070;23;20021;-73
2022/11/28 04:50:20;;;;;;;36.08;18.75;;;;;;;1.71;68.29;101175.94;6153412;23;20025;-73
2022/11/28 04:53:13;;;;;;;38.05;19.27;;;;;;;1.79;68.32;101180.78;6153159;23;20100;-73
2022/11/28 04:55:46;;;;;;;35.75;18.08;;;;;;;1.60;68.50;101174.88;6153296;23;20027;-73
2022/11/28 04:58:29;;;;;;;41.00;18.35;;;;;;;2.02;67.40;101178.53;6152960;23;20017;-72
2022/11/28 05:00:57;;;;;;;34.10;17.80;;;;;;;2.13;66.83;101182.25;6153704;23;20037;-72
2022/11/28 05:03:28;;;;;;;36.58;19.52;;;;;;;1.92;67.12;101184.41;6153371;23;20390;-72
2022/11/28 05:05:54;;;;;;;31.42;16.92;;;;;;;1.98;67.56;101182.31;6153325;23;20025;-72
2022/11/28 05:08:21;;;;;;;37.45;18.83;;;;;;;1.87;67.61;101185.59;6152546;23;20504;-73
2022/11/28 05:10:47;;;;;;;29.95;18.02;;;;;;;1.92;67.58;101181.78;6153138;23;20358;-72
2022/11/28 05:13:14;;;;;;;33.47;17.58;;;;;;;1.94;67.39;101187.81;6152477;23;20342;-73
2022/11/28 05:15:40;;;;;;;32.50;18.45;;;;;;;1.96;67.45;101190.38;6153985;23;20021;-72
2022/11/28 05:18:08;;;;;;;31.83;17.77;;;;;;;2.11;67.12;101178.84;6152789;23;20105;-72
2022/11/28 05:20:36;;;;;;;33.45;17.90;;;;;;;2.16;66.23;101174.09;6153965;23;20048;-73
2022/11/28 05:23:03;;;;;;;38.08;18.42;;;;;;;2.02;66.60;101178.53;6147069;23;20362;-72
2022/11/28 05:25:29;;;;;;;30.48;16.98;;;;;;;2.07;66.32;101176.47;6152826;23;20017;-73
2022/11/28 05:27:56;;;;;;;35.20;17.60;;;;;;;2.15;66.48;101184.78;6153579;23;20362;-72
2022/11/28 05:30:22;;;;;;;33.28;18.00;;;;;;;1.86;67.09;101183.91;6153493;23;20021;-73
2022/11/28 05:32:49;;;;;;;36.28;18.35;;;;;;;2.14;66.54;101172.50;6152195;23;20027;-72
2022/11/28 05:35:15;;;;;;;30.25;16.65;;;;;;;2.08;66.16;101172.88;6152737;23;20045;-72
2022/11/28 05:37:42;;;;;;;36.05;17.92;;;;;;;2.27;65.74;101178.75;6153490;23;20463;-73
2022/11/28 05:40:08;;;;;;;37.97;17.77;;;;;;;2.11;66.15;101165.59;6153242;23;20358;-73
2022/11/28 05:42:35;;;;;;;34.83;17.20;;;;;;;2.19;65.53;101168.63;6153771;23;20346;-73
2022/11/28 05:45:04;;;;;;;36.10;17.55;;;;;;;2.04;66.13;101163.44;6152072;23;20028;-73
2022/11/28 05:47:32;;;;;;;40.38;17.02;;;;;;;2.12;65.62;101162.00;6153190;23;20443;-73
2022/11/28 05:49:58;;;;;;;32.80;16.83;;;;;;;2.31;65.39;101167.03;6152137;23;20101;-73
2022/11/28 05:52:28;;;;;;;32.00;17.25;;;;;;;2.13;65.70;101162.84;6153363;23;20025;-73
2022/11/28 05:54:55;;;;;;;31.67;17.13;;;;;;;2.08;65.61;101152.56;6153556;23;20029;-73
2022/11/28 05:57:21;;;;;;;34.60;17.65;;;;;;;2.06;65.52;101150.94;6152791;23;20021;-73
2022/11/28 05:59:47;;;;;;;34.08;17.80;;;;;;;1.99;66.39;101147.81;6152979;23;20030;-72
2022/11/28 06:02:14;;;;;;;37.53;17.60;;;;;;;1.90;66.38;101149.22;6152341;23;20026;-73
2022/11/28 06:04:41;;;;;;;37.70;18.45;;;;;;;2.04;65.18;101144.91;6152648;23;20025;-73
2022/11/28 06:07:07;;;;;;;36.05;17.65;;;;;;;2.15;65.49;101142.44;6153611;23;20021;-73
2022/11/28 06:09:34;;;;;;;36.92;17.30;;;;;;;1.84;65.74;101139.00;6153397;23;20017;-73
2022/11/28 06:12:00;;;;;;;38.15;19.00;;;;;;;2.02;65.39;101142.34;6153161;23;20032;-73
2022/11/28 06:14:27;;;;;;;36.45;17.60;;;;;;;2.02;65.68;101133.56;6153051;23;20044;-73
2022/11/28 06:16:53;;;;;;;33.85;17.92;;;;;;;1.98;65.51;101132.91;6152695;23;20026;-73
2022/11/28 06:19:20;;;;;;;32.58;17.88;;;;;;;2.05;65.34;101128.91;6152996;23;20026;-73
2022/11/28 06:21:49;;;;;;;40.90;18.23;;;;;;;2.11;65.53;101125.06;6152565;23;20029;-73
2022/11/28 06:24:15;;;;;;;37.00;18.67;;;;;;;2.16;65.02;101121.16;6152613;23;20032;-73
2022/11/28 06:26:42;;;;;;;37.30;18.13;;;;;;;2.14;65.44;101124.88;6152874;23;20595;-73
2022/11/28 06:29:08;;;;;;;36.15;18.13;;;;;;;2.27;64.99;101125.81;6152857;23;20025;-73
2022/11/28 06:31:35;;;;;;;36.05;18.55;;;;;;;1.90;65.94;101117.47;6151955;23;20018;-73
2022/11/28 06:34:02;;;;;;;42.10;18.52;;;;;;;1.86;66.07;101121.25;6152863;23;20030;-73
2022/11/28 06:36:29;;;;;;;35.45;18.05;;;;;;;1.89;66.16;101122.88;6152316;23;20055;-73
2022/11/28 06:38:56;;;;;;;35.25;17.95;;;;;;;1.97;66.25;101122.41;6151924;23;20419;-73
2022/11/28 06:41:22;;;;;;;35.55;17.83;;;;;;;2.03;65.31;101122.03;6152542;23;20451;-73
2022/11/28 06:43:49;;;;;;;41.47;17.63;;;;;;;2.01;65.50;101119.47;6151866;23;20021;-73
2022/11/28 06:46:19;;;;;;;32.63;17.08;;;;;;;2.06;65.48;101112.13;6151086;23;20057;-73
2022/11/28 06:48:47;;;;;;;30.85;16.55;;;;;;;1.86;65.79;101118.59;6150755;23;20061;-73
2022/11/28 06:51:14;;;;;;;33.65;16.83;;;;;;;2.11;65.34;101125.06;6153040;23;20025;-73
2022/11/28 06:53:41;;;;;;;34.90;17.75;;;;;;;1.89;66.28;101120.22;6153273;23;20028;-73
2022/11/28 06:56:12;;;;;;;37.08;18.30;;;;;;;1.95;65.71;101120.69;6146201;23;20017;-75
2022/11/28 06:58:39;;;;;;;;;;;;;;;1.94;66.02;101119.00;6148596;23;20084;-75
2022/11/28 07:01:12;;;;;;;42.90;18.60;;;;;;;2.15;65.10;101129.22;6151073;23;20234;-76
2022/11/28 07:03:40;;;;;;;37.17;18.23;;;;;;;1.98;65.75;101124.97;6119907;23;20022;-75
2022/11/28 07:06:11;;;;;;;41.67;19.02;;;;;;;1.90;66.33;101128.06;6120055;23;20477;-75
2022/11/28 07:08:38;;;;;;;36.45;19.90;;;;;;;1.89;66.04;101130.81;6120604;23;20026;-75
2022/11/28 07:11:14;;;;;;;36.85;19.67;;;;;;;1.83;66.61;101129.38;6119447;23;20085;-75
2022/11/28 07:13:44;;;;;;;38.55;19.52;;;;;;;1.89;65.84;101130.81;6150684;23;20042;-76
2022/11/28 07:16:25;;;;;;;33.90;18.83;;;;;;;1.89;66.43;101121.06;6150117;23;20048;-76
2022/11/28 07:18:58;;;;;;;40.58;19.58;;;;;;;2.00;66.02;101117.78;6147829;23;20454;-76
2022/11/28 07:21:26;;;;;;;36.95;20.65;;;;;;;1.92;66.28;101118.28;6149329;23;20048;-75
2022/11/28 07:23:52;;;;;;;38.95;19.30;;;;;;;1.92;66.32;101115.63;6150539;23;20083;-76
2022/11/28 07:26:20;;;;;;;41.92;20.52;;;;;;;1.95;66.37;101107.47;6150508;23;20023;-76
2022/11/28 07:28:49;;;;;;;38.25;20.23;;;;;;;1.90;66.33;101109.53;6149174;23;20128;-76
2022/11/28 07:31:19;;;;;;;41.15;20.50;;;;;;;1.80;66.38;101121.63;6135406;23;20030;-75
2022/11/28 07:33:51;;;;;;;41.65;20.58;;;;;;;1.90;66.47;101116.63;6125731;23;20030;-75
2022/11/28 07:36:21;;;;;;;39.63;20.33;;;;;;;1.92;66.75;101120.91;6136142;23;20020;-76
2022/11/28 07:38:50;;;;;;;45.08;20.38;;;;;;;2.04;66.15;101118.44;6118274;23;20030;-76
2022/11/28 07:41:17;;;;;;;40.85;19.63;;;;;;;2.05;66.48;101114.84;6118396;23;20025;-75
2022/11/28 07:43:53;;;;;;;41.38;20.60;;;;;;;1.91;66.81;101108.56;6121090;23;20029;-76
2022/11/28 07:46:20;;;;;;;40.28;19.38;;;;;;;2.00;66.58;101109.84;6121538;23;20026;-75
2022/11/28 07:48:48;;;;;;;41.13;21.13;;;;;;;1.80;67.24;101105.75;6122590;23;20025;-76
2022/11/28 07:51:21;;;;;;;46.78;20.95;;;;;;;1.80;67.22;101113.69;6119409;23;20367;-75
2022/11/28 07:53:56;;;;;;;39.67;20.17;;;;;;;1.89;66.88;101110.47;6120857;23;20426;-76
2022/11/28 07:56:26;;;;;;;43.13;21.83;;;;;;;1.69;67.52;101102.91;6116637;23;20021;-76
2022/11/28 07:59:13;;;;;;;42.95;20.13;;;;;;;2.00;66.52;101114.28;6119799;23;20025;-76
2022/11/28 08:01:40;;;;;;;47.50;21.13;;;;;;;2.01;66.40;101113.34;6086986;23;20022;-75
2022/11/28 08:04:08;;;;;;;46.63;22.88;;;;;;;1.84;67.18;101117.84;6120168;23;20028;-76
2022/11/28 08:06:40;;;;;;;41.00;20.63;;;;;;;1.98;66.45;101110.88;6110602;23;20066;-76
2022/11/28 08:09:12;;;;;;;41.35;21.45;;;;;;;1.91;67.19;101108.56;6138191;23;20104;-76
2022/11/28 08:11:51;;;;;;;40.25;21.92;;;;;;;1.97;67.11;101098.59;6121049;23;20097;-76
2022/11/28 08:14:19;;;;;;;44.53;21.77;;;;;;;1.92;66.75;101101.47;6119648;23;20022;-75
2022/11/28 08:16:46;;;;;;;50.38;22.10;;;;;;;2.03;66.84;101096.44;6118496;23;20021;-75
2022/11/28 08:19:13;;;;;;;46.20;22.98;;;;;;;1.95;66.89;101103.97;6130492;23;20029;-76
2022/11/28 08:21:40;;;;;;;41.50;21.85;;;;;;;2.11;66.86;101093.28;6119930;23;20025;-75
2022/11/28 08:24:07;;;;;;;51.72;22.80;;;;;;;2.04;66.62;101090.19;6111434;23;20021;-76
2022/11/28 08:26:35;;;;;;;44.60;22.35;;;;;;;2.06;66.52;101085.66;6138793;23;20042;-76
2022/11/28 08:29:02;;;;;;;49.15;22.25;;;;;;;2.26;66.58;101083.53;6118907;23;20026;-76
2022/11/28 08:31:32;;;;;;;46.22;22.85;;;;;;;2.09;66.59;101076.66;6119392;23;20332;-76
2022/11/28 08:34:02;;;;;;;41.80;22.63;;;;;;;2.20;65.79;101092.72;6118992;23;20026;-76
2022/11/28 08:36:29;;;;;;;41.38;22.17;;;;;;;2.53;65.81;101089.69;6120109;23;20093;-75
2022/11/28 08:39:00;;;;;;;54.28;22.65;;;;;;;2.48;65.54;101083.00;6104344;23;20029;-76
2022/11/28 08:41:48;;;;;;;41.50;20.95;;;;;;;2.78;64.61;101083.66;6120548;23;20358;-75
2022/11/28 08:44:15;;;;;;;41.90;22.52;;;;;;;2.64;64.28;101081.06;6121048;23;20026;-75
2022/11/28 08:46:42;;;;;;;41.00;21.90;;;;;;;2.44;65.77;101087.63;6121442;23;20053;-75
2022/11/28 08:49:09;;;;;;;48.35;23.02;;;;;;;2.52;65.51;101087.16;6121199;23;20045;-75
2022/11/28 08:51:35;;;;;;;44.70;21.75;;;;;;;2.50;65.43;101083.75;6119803;23;20030;-75
2022/11/28 08:54:02;;;;;;;43.30;21.10;;;;;;;2.52;65.24;101087.16;6121332;23;20026;-75
2022/11/28 08:56:32;;;;;;;41.47;21.95;;;;;;;2.61;64.45;101087.41;6120594;23;20025;-75
2022/11/28 08:59:09;;;;;;;46.33;21.48;;;;;;;2.88;64.06;101090.03;6121000;23;20026;-75
2022/11/28 09:01:36;;;;;;;46.50;22.77;;;;;;;2.77;64.49;101092.56;6119695;23;20117;-76
2022/11/28 09:04:03;;;;;;;40.13;20.40;;;;;;;2.56;64.08;101099.25;6118160;23;20412;-75
2022/11/28 09:06:30;;;;;;;41.92;21.60;;;;;;;2.81;64.25;101103.78;6119924;23;20017;-75
2022/11/28 09:08:57;;;;;;;42.20;21.13;;;;;;;2.89;63.66;101106.78;6122160;23;20067;-76
2022/11/28 09:11:27;;;;;;;44.70;22.70;;;;;;;2.50;64.71;101097.00;6126395;23;20371;-75
2022/11/28 09:13:54;;;;;;;41.15;21.70;;;;;;;2.74;64.07;101097.22;6125612;23;20022;-75
2022/11/28 09:16:21;;;;;;;46.25;22.48;;;;;;;2.65;64.20;101102.16;6121861;23;20112;-75
2022/11/28 09:18:48;;;;;;;47.05;22.38;;;;;;;2.88;63.59;101111.25;6123082;23;20048;-75
2022/11/28 09:21:15;;;;;;;42.05;20.52;;;;;;;2.74;63.37;101103.34;6146400;23;20025;-75
2022/11/28 09:23:43;;;;;;;43.72;22.00;;;;;;;2.73;63.96;101093.72;6129924;23;20034;-75
2022/11/28 09:26:13;;;;;;;44.58;21.35;;;;;;;2.68;64.46;101098.44;6119157;23;20099;-75
2022/11/28 09:28:43;;;;;;;47.30;22.15;;;;;;;2.41;65.15;101109.88;6151033;23;20362;-76
2022/11/28 09:31:15;;;;;;;46.42;22.95;;;;;;;2.52;64.44;101101.25;6151950;23;20398;-75
2022/11/28 09:33:42;;;;;;;48.72;21.65;;;;;;;2.74;64.23;101094.56;6146833;23;20028;-75
2022/11/28 09:36:11;;;;;;;42.67;21.13;;;;;;;2.81;63.99;101088.75;6152690;23;20017;-75
2022/11/28 09:38:38;;;;;;;44.83;22.42;;;;;;;2.68;64.64;101079.91;6150769;23;20331;-76
2022/11/28 09:41:30;;;;;;;44.53;21.83;;;;;;;2.69;64.02;101078.97;6150457;23;20021;-76
2022/11/28 09:44:01;;;;;;;39.97;21.17;;;;;;;2.99;63.41;101077.88;6141168;23;20402;-76
2022/11/28 09:46:33;;;;;;;45.85;22.02;;;;;;;2.69;64.34;101078.97;6152099;23;20025;-75
2022/11/28 09:49:03;;;;;;;48.05;22.98;;;;;;;2.80;63.70;101073.81;6150964;23;20026;-75
2022/11/28 09:51:42;;;;;;;47.70;23.55;;;;;;;2.64;63.81;101067.81;6153379;23;20070;-76
2022/11/28 09:54:32;;;;;;;43.28;21.40;;;;;;;2.97;63.44;101058.59;6149801;23;20407;-75
2022/11/28 09:57:11;;;;;;;44.58;21.02;;;;;;;2.81;63.18;101051.66;6150568;23;20031;-75
2022/11/28 09:59:39;;;;;;;45.67;21.55;;;;;;;2.81;63.89;101054.31;6149829;23;20029;-75
2022/11/28 10:02:12;;;;;;;48.20;20.85;;;;;;;2.78;63.63;101049.19;6149569;23;20060;-75
2022/11/28 10:04:57;;;;;;;51.55;23.95;;;;;;;3.00;63.15;101051.28;6151223;23;20048;-76
2022/11/28 10:07:55;;;;;;;46.97;22.73;;;;;;;3.16;62.90;101061.69;6143205;23;20028;-75
2022/11/28 10:10:39;;;;;;;51.33;23.40;;;;;;;3.05;62.78;101064.22;6149724;23;20021;-76
2022/11/28 10:13:27;;;;;;;50.47;22.63;;;;;;;3.31;62.31;101062.47;6150133;23;20092;-76
2022/11/28 10:16:29;;;;;;;46.95;21.65;;;;;;;3.29;62.15;101070.50;6150518;23;20351;-76
2022/11/28 10:19:04;;;;;;;45.53;22.33;;;;;;;3.30;62.52;101074.00;6145335;23;20053;-75
2022/11/28 10:22:20;;;;;;;57.83;24.77;;;;;;;3.28;62.32;101068.81;6152832;23;20022;-76
2022/11/28 10:24:53;;;;;;;46.22;22.05;;;;;;;3.21;62.41;101070.19;6135632;23;20060;-76
2022/11/28 10:27:36;;;;;;;48.55;23.02;;;;;;;3.42;61.97;101067.03;6129978;23;20470;-76
2022/11/28 10:30:18;;;;;;;53.17;24.48;;;;;;;3.19;62.49;101074.75;6118855;23;20076;-76
2022/11/28 10:32:54;;;;;;;56.95;23.88;;;;;;;3.17;62.84;101067.84;6143074;23;21065;-76
2022/11/28 10:35:26;;;;;;;54.10;22.85;;;;;;;3.15;62.91;101060.00;6108331;23;20081;-76
2022/11/28 10:37:55;;;;;;;52.63;24.50;;;;;;;2.85;63.64;101042.53;6123868;23;20021;-76
2022/11/28 10:41:20;;;;;;;48.42;22.58;;;;;;;3.22;62.86;101053.31;6125222;23;20021;-76
2022/11/28 10:44:10;;;;;;;48.47;22.23;;;;;;;3.05;63.22;101054.47;6093292;23;20121;-76
2022/11/28 10:47:10;;;;;;;49.25;23.27;;;;;;;2.97;63.29;101040.88;6135176;23;20027;-76
2022/11/28 10:49:53;;;;;;;53.30;23.17;;;;;;;3.00;62.94;101040.69;6124980;23;20022;-75
2022/11/28 10:52:30;;;;;;;46.45;22.77;;;;;;;3.07;62.69;101033.16;6149109;23;20028;-76
2022/11/28 10:55:10;;;;;;;57.35;24.02;;;;;;;3.37;61.77;101028.38;6150301;23;20021;-74
2022/11/28 10:58:02;;;;;;;52.40;22.70;;;;;;;3.19;62.78;101027.00;6149128;23;20014;-75
2022/11/28 11:00:29;;;;;;;59.40;23.15;;;;;;;3.31;62.25;101026.19;6119245;23;20101;-75
2022/11/28 11:03:01;;;;;;;50.42;22.60;;;;;;;3.34;62.30;101027.75;6119509;23;20014;-75
2022/11/28 11:05:35;;;;;;;50.92;22.77;;;;;;;3.24;62.30;101019.63;6102731;23;20045;-76
2022/11/28 11:08:23;;;;;;;51.95;22.80;;;;;;;3.15;62.69;101026.38;6118406;23;20081;-76
2022/11/28 11:11:22;;;;;;;58.40;25.05;;;;;;;3.64;61.54;101032.75;6119483;23;20025;-76
2022/11/28 11:13:55;;;;;;;53.90;21.98;;;;;;;3.66;61.38;101017.56;6116666;23;20022;-76
2022/11/28 11:16:22;;;;;;;48.30;22.98;;;;;;;3.56;61.16;101027.97;6106766;23;20018;-76
2022/11/28 11:18:53;;;;;;;49.00;22.98;;;;;;;3.65;61.29;101021.16;6119577;23;20126;-76
2022/11/28 11:21:23;;;;;;;32.88;15.75;;;;;;;3.99;60.13;101021.41;6119104;23;20022;-76
2022/11/28 11:24:10;;;;;;;69.50;24.02;;;;;;;3.89;60.48;101023.88;6118309;23;20097;-76
2022/11/28 11:26:39;;;;;;;52.38;23.02;;;;;;;4.03;59.88;101018.44;6115354;23;20022;-76
2022/11/28 11:29:20;;;;;;;48.65;21.83;;;;;;;3.85;60.95;101020.59;6119107;23;20022;-76
2022/11/28 11:31:52;;;;;;;46.60;21.90;;;;;;;3.69;61.05;101014.72;6117644;23;20040;-76
2022/11/28 11:34:22;;;;;;;46.65;22.10;;;;;;;3.93;60.41;101024.50;6119499;23;20068;-76
2022/11/28 11:36:50;;;;;;;55.83;23.65;;;;;;;3.98;59.70;101027.69;6118707;23;20077;-76
2022/11/28 11:39:24;;;;;;;46.50;21.92;;;;;;;3.96;60.77;101024.28;6119491;23;22786;-76
2022/11/28 11:42:10;;;;;;;44.28;21.95;;;;;;;3.89;60.41;101029.19;6111904;23;20025;-76
2022/11/28 11:44:37;;;;;;;49.90;21.98;;;;;;;3.74;60.84;101017.88;6118312;23;20018;-76
2022/11/28 11:47:07;;;;;;;45.55;22.40;;;;;;;4.03;59.95;101021.09;6121122;23;20018;-75